Andrea — ZDIS8 — position and weather

sailwx.info

Track history (hours):
 
Tides and Currents Weather Stations Pressure Air Temp Water Temp Dewpoint Dewpoint Depression Visibility Wind Speed Wind Dir Waves Ship Positions

Andrea

Last reported at 2017-Nov-20 00:28 UTC. Time now 2017-Nov-23 03:54 UTC.
Position N 49°21' E 000°59'.

Length 134 m; draft 7.2 m.

Type: Ship (hazmat cat A). MMSI: 236481000.

Date/timePositionNaut miles runAvg speedWind from/ knotsBaromVisibWave heightAir tempDewpointWater temp
2017-Nov-20 00:28N 49°21' E 000°59'0 0.0
2017-Nov-19 23:58N 49°21' E 000°59'0 0.0
2017-Nov-19 23:28N 49°21' E 000°59'0 0.0
2017-Nov-19 22:58N 49°21' E 000°59'0 0.0
2017-Nov-19 22:28N 49°21' E 000°59'0 0.0
2017-Nov-19 21:58N 49°21' E 000°59'0 0.0
2017-Nov-19 21:28N 49°21' E 000°59'0 0.0
2017-Nov-19 20:58N 49°21' E 000°59'0 0.0
2017-Nov-19 20:28N 49°21' E 000°59'0 0.0
2017-Nov-19 19:58N 49°21' E 000°59'0 0.0
2017-Nov-19 19:28N 49°21' E 000°59'0 0.0
2017-Nov-19 18:58N 49°21' E 000°59'0 0.0
2017-Nov-19 18:28N 49°21' E 000°59'0 0.0
2017-Nov-19 17:58N 49°21' E 000°59'0 0.0
2017-Nov-19 17:28N 49°21' E 000°59'0 0.0
2017-Nov-19 16:58N 49°21' E 000°59'0 0.0
2017-Nov-19 16:22N 49°21' E 000°59'0 0.0
2017-Nov-19 15:58N 49°21' E 000°59'0 0.0
2017-Nov-19 15:28N 49°21' E 000°59'0 0.0
2017-Nov-19 14:58N 49°21' E 000°59'0 0.0
2017-Nov-19 14:28N 49°21' E 000°59'0 0.0
2017-Nov-19 13:46N 49°21' E 000°59'0 0.0
2017-Nov-19 13:25N 49°21' E 000°59'0 0.0
2017-Nov-19 12:58N 49°21' E 000°59'0 0.0
2017-Nov-19 12:28N 49°21' E 000°59'0 0.0
2017-Nov-19 11:58N 49°21' E 000°59'0 0.0
2017-Nov-19 11:28N 49°21' E 000°59'0 0.0
2017-Nov-19 10:58N 49°21' E 000°59'0 0.0
2017-Nov-19 10:28N 49°21' E 000°59'0 0.0
2017-Nov-19 09:58N 49°21' E 000°59'0 0.0
2017-Nov-19 09:28N 49°21' E 000°59'0 0.0
2017-Nov-19 08:58N 49°21' E 000°59'0 0.0
2017-Nov-19 08:28N 49°21' E 000°59'0 0.0
2017-Nov-19 07:58N 49°21' E 000°59'0 0.0
2017-Nov-19 07:28N 49°21' E 000°59'0 0.0
2017-Nov-19 06:58N 49°21' E 000°59'0 0.0
2017-Nov-19 06:28N 49°21' E 000°59'0 0.0
2017-Nov-19 05:58N 49°21' E 000°59'0 0.0
2017-Nov-19 05:28N 49°21' E 000°59'0 0.0
2017-Nov-19 04:58N 49°21' E 000°59'0 0.0
2017-Nov-19 04:29N 49°21' E 000°59'0 0.0
2017-Nov-19 03:59N 49°21' E 000°59'0 0.0
2017-Nov-19 03:29N 49°21' E 000°59'0 0.0
2017-Nov-19 02:59N 49°21' E 000°59'0 0.0
2017-Nov-19 02:29N 49°21' E 000°59'0 0.0
2017-Nov-19 01:59N 49°21' E 000°59'0 0.0
2017-Nov-19 01:29N 49°21' E 000°59'0 0.0
2017-Nov-19 00:59N 49°21' E 000°59'0 0.0
2017-Nov-19 00:29N 49°21' E 000°59'0 0.0
2017-Nov-19 00:00N 49°21' E 000°59'2 4.4
2017-Nov-18 23:30N 49°22' E 000°55'612.7
2017-Nov-18 23:00N 49°28' E 000°56'3 7.0
2017-Nov-18 22:30N 49°26' E 000°52'2 4.7
2017-Nov-18 22:00N 49°26' E 000°48'510.0
2017-Nov-18 21:30N 49°31' E 000°46'4 7.7
2017-Nov-18 21:00N 49°30' E 000°40'510.7
2017-Nov-18 20:31N 49°26' E 000°35'4 8.6
2017-Nov-18 20:00N 49°29' E 000°30'611.6
2017-Nov-18 19:31N 49°27' E 000°22'713.3
2017-Nov-18 19:01N 49°26' E 000°12'714.6
2017-Nov-18 18:31N 49°27' E 000°01'5 9.5
2017-Nov-18 18:01N 49°29' W 000°06'1 2.5
2017-Nov-18 17:30N 49°29' W 000°08'0 0.0
2017-Nov-18 16:59N 49°29' W 000°08'0 0.2
2017-Nov-18 16:29N 49°29' W 000°08'0 0.1
2017-Nov-18 16:00N 49°29' W 000°08'0 0.0
2017-Nov-18 15:30N 49°29' W 000°08'0 0.0
2017-Nov-18 15:00N 49°29' W 000°08'0 0.0
2017-Nov-18 14:29N 49°29' W 000°08'0 0.1
2017-Nov-18 14:00N 49°29' W 000°08'2 4.8
2017-Nov-18 13:30N 49°30' W 000°11'815.7
2017-Nov-18 13:00N 49°38' W 000°11'815.8
2017-Nov-18 12:30N 49°46' W 000°11'713.8
2017-Nov-18 12:01N 49°53' W 000°11'612.6
2017-Nov-18 11:30N 49°59' W 000°10'612.6
2017-Nov-18 11:00N 50°05' W 000°10'612.4
2017-Nov-18 10:30N 50°12' W 000°09'612.3
2017-Nov-18 10:00N 50°18' W 000°09'612.2
2017-Nov-18 09:30N 50°24' W 000°08'5 9.4
2017-Nov-18 08:59N 50°28' W 000°05'510.4
2017-Nov-18 08:30N 50°30' E 000°03'510.5
2017-Nov-18 08:00N 50°31' E 000°11'510.6
2017-Nov-18 07:31N 50°33' E 000°19'611.2
2017-Nov-18 07:00N 50°35' E 000°27'612.1
2017-Nov-18 06:31N 50°37' E 000°36'612.8
2017-Nov-18 06:01N 50°41' E 000°44'713.7
2017-Nov-18 05:31N 50°45' E 000°52'713.9
2017-Nov-18 05:01N 50°50' E 000°60'714.0
2017-Nov-18 04:30N 50°55' E 001°09'713.7
2017-Nov-18 04:00N 50°59' E 001°17'713.3
2017-Nov-18 03:31N 51°03' E 001°25'612.5
2017-Nov-18 03:01N 51°07' E 001°33'611.4
2017-Nov-18 02:30N 51°11' E 001°40'611.2
2017-Nov-18 02:00N 51°14' E 001°47'510.8
2017-Nov-18 01:31N 51°18' E 001°52'510.7
2017-Nov-18 01:00N 51°23' E 001°56'510.8
2017-Nov-18 00:31N 51°28' E 002°01'611.3
2017-Nov-18 00:00N 51°32' E 002°07'611.5
2017-Nov-17 23:30N 51°36' E 002°13'5512.4
2017-Nov-17 19:04N 52°03' E 003°31'114.1
2017-Nov-17 18:59N 52°03' E 003°33'714.6
2017-Nov-17 18:30N 52°03' E 003°44'713.3
2017-Nov-17 18:01N 52°02' E 003°55'510.3
2017-Nov-17 17:30N 51°60' E 004°02'714.3
2017-Nov-17 17:01N 51°56' E 004°13'611.7
2017-Nov-17 16:30N 51°54' E 004°21'3 6.0
2017-Nov-17 16:00N 51°54' E 004°26'0 0.0
2017-Nov-17 15:28N 51°54' E 004°26'0 0.0
2017-Nov-17 14:58N 51°54' E 004°26'0 0.0
2017-Nov-17 14:28N 51°54' E 004°26'0 0.0
2017-Nov-17 13:58N 51°54' E 004°26'0 0.0
2017-Nov-17 13:28N 51°54' E 004°26'0 0.0
2017-Nov-17 12:58N 51°54' E 004°26'0 0.0
2017-Nov-17 12:28N 51°54' E 004°26'0 0.0
2017-Nov-17 11:58N 51°54' E 004°26'0 0.0
2017-Nov-17 11:28N 51°54' E 004°26'0 0.0
2017-Nov-17 10:58N 51°54' E 004°26'0 0.0
2017-Nov-17 10:28N 51°54' E 004°26'0 0.0
2017-Nov-17 09:58N 51°54' E 004°26'0 0.0
2017-Nov-17 09:28N 51°54' E 004°26'0 0.0
2017-Nov-17 08:58N 51°54' E 004°26'0 0.0
2017-Nov-17 08:28N 51°54' E 004°26'0 0.0
2017-Nov-17 07:58N 51°54' E 004°26'0 0.0
2017-Nov-17 07:28N 51°54' E 004°26'0 0.0
2017-Nov-17 06:58N 51°54' E 004°26'0 0.0
2017-Nov-17 06:28N 51°54' E 004°26'0 0.0
2017-Nov-17 05:58N 51°54' E 004°26'0 0.0
2017-Nov-17 05:28N 51°54' E 004°26'0 0.0
2017-Nov-17 04:58N 51°54' E 004°26'0 0.0
2017-Nov-17 04:28N 51°54' E 004°26'0 0.0
2017-Nov-17 03:58N 51°54' E 004°26'0 0.0
2017-Nov-17 03:28N 51°54' E 004°26'0 0.0
2017-Nov-17 02:58N 51°54' E 004°26'0 0.0
2017-Nov-17 02:28N 51°54' E 004°26'0 0.0
2017-Nov-17 01:58N 51°54' E 004°26'0 0.0
2017-Nov-17 01:28N 51°54' E 004°26'0 0.0
2017-Nov-17 00:58N 51°54' E 004°26'0 0.0
2017-Nov-17 00:28N 51°54' E 004°26'0 0.0
2017-Nov-16 23:58N 51°54' E 004°26'0 0.5
2017-Nov-16 23:30N 51°54' E 004°26'1 2.2
2017-Nov-16 22:59N 51°53' E 004°25'0 0.0
2017-Nov-16 22:29N 51°53' E 004°25'0 0.0
2017-Nov-16 21:59N 51°53' E 004°25'0 0.0
2017-Nov-16 21:29N 51°53' E 004°25'0 0.0
2017-Nov-16 20:59N 51°53' E 004°25'0 0.0
2017-Nov-16 20:29N 51°53' E 004°25'0 0.0
2017-Nov-16 19:59N 51°53' E 004°25'0 0.0
2017-Nov-16 19:29N 51°53' E 004°25'0 0.0
2017-Nov-16 18:59N 51°53' E 004°25'0 0.0
2017-Nov-16 18:29N 51°53' E 004°25'0 0.0
2017-Nov-16 17:59N 51°53' E 004°25'0 0.0
2017-Nov-16 17:29N 51°53' E 004°25'0 0.0
2017-Nov-16 16:59N 51°53' E 004°25'0 0.0
2017-Nov-16 16:29N 51°53' E 004°25'0 0.0
2017-Nov-16 15:59N 51°53' E 004°25'0 0.0
2017-Nov-16 15:29N 51°53' E 004°25'0 0.0
2017-Nov-16 14:59N 51°53' E 004°25'0 0.0
2017-Nov-16 14:29N 51°53' E 004°25'0 0.0
2017-Nov-16 14:00N 51°53' E 004°25'2 4.0
2017-Nov-16 13:30N 51°54' E 004°23'4 8.3
2017-Nov-16 13:00N 51°54' E 004°16'510.0
2017-Nov-16 12:30N 51°57' E 004°10'612.2
2017-Nov-16 12:00N 51°60' E 004°00'612.8
2017-Nov-16 11:30N 52°01' E 003°50'4 7.3
2017-Nov-16 11:00N 52°04' E 003°46'4 7.8
2017-Nov-16 10:30N 52°08' E 003°46'4 8.3
2017-Nov-16 10:00N 52°12' E 003°46'611.8
2017-Nov-16 09:30N 52°18' E 003°47'813.2
2017-Nov-16 08:53N 52°26' E 003°50'513.0
2017-Nov-16 08:29N 52°31' E 003°51'612.9
2017-Nov-16 08:00N 52°37' E 003°52'713.4
2017-Nov-16 07:30N 52°44' E 003°55'1413.6
2017-Nov-16 06:28N 52°57' E 004°01'1013.5
2017-Nov-16 05:45N 53°04' E 004°13'413.4
2017-Nov-16 05:29N 53°06' E 004°18'13213.2
2017-Nov-15 19:27N 54°02' E 007°40'913.5
2017-Nov-15 18:50N 54°02' E 007°54'413.4
2017-Nov-15 18:30N 54°01' E 008°01'713.3
2017-Nov-15 18:00N 54°01' E 008°12'713.8
2017-Nov-15 17:30N 53°59' E 008°24'816.4
2017-Nov-15 17:00N 53°57' E 008°38'918.0
2017-Nov-15 16:30N 53°51' E 008°47'918.8
2017-Nov-15 16:00N 53°52' E 009°03'714.3
2017-Nov-15 15:30N 53°53' E 009°15'917.7
2017-Nov-15 15:00N 53°45' E 009°24'816.3
2017-Nov-15 14:30N 53°39' E 009°31'816.0
2017-Nov-15 14:00N 53°34' E 009°43'612.5
2017-Nov-15 13:30N 53°33' E 009°53'1 2.6
2017-Nov-15 12:59N 53°32' E 009°55'0 0.0
2017-Nov-15 12:29N 53°32' E 009°55'0 0.0
2017-Nov-15 11:59N 53°32' E 009°55'0 0.0
2017-Nov-15 11:29N 53°32' E 009°55'0 0.0
2017-Nov-15 10:59N 53°32' E 009°55'0 0.0
2017-Nov-15 10:29N 53°32' E 009°55'0 0.0
2017-Nov-15 09:59N 53°32' E 009°55'0 0.0
2017-Nov-15 09:29N 53°32' E 009°55'0 0.0
2017-Nov-15 08:59N 53°32' E 009°55'0 0.0
2017-Nov-15 08:29N 53°32' E 009°55'0 0.0
2017-Nov-15 07:59N 53°32' E 009°55'0 0.0
2017-Nov-15 07:29N 53°32' E 009°55'0 0.0
2017-Nov-15 06:59N 53°32' E 009°55'0 0.0
2017-Nov-15 06:29N 53°32' E 009°55'0 0.0
2017-Nov-15 05:59N 53°32' E 009°55'0 0.0
2017-Nov-15 05:29N 53°32' E 009°55'0 0.0
2017-Nov-15 04:59N 53°32' E 009°55'0 0.0
2017-Nov-15 04:29N 53°32' E 009°55'0 0.0
2017-Nov-15 03:59N 53°32' E 009°55'0 0.0
2017-Nov-15 03:29N 53°32' E 009°55'0 0.0
2017-Nov-15 02:59N 53°32' E 009°55'0 0.0
2017-Nov-15 02:29N 53°32' E 009°55'0 0.0
2017-Nov-15 01:59N 53°32' E 009°55'0 0.0
2017-Nov-15 01:29N 53°32' E 009°55'0 0.0
2017-Nov-15 00:59N 53°32' E 009°55'0 0.0
2017-Nov-15 00:29N 53°32' E 009°55'0 0.0
2017-Nov-14 23:59N 53°32' E 009°55'0 0.0
2017-Nov-14 23:29N 53°32' E 009°55'0 0.0
2017-Nov-14 22:59N 53°32' E 009°55'0 0.0
2017-Nov-14 22:29N 53°32' E 009°55'0 0.0
2017-Nov-14 21:59N 53°32' E 009°55'0 0.0
2017-Nov-14 21:29N 53°32' E 009°55'0 0.0
2017-Nov-14 20:59N 53°32' E 009°55'0 0.0
2017-Nov-14 20:29N 53°32' E 009°55'1 2.7
2017-Nov-14 20:00N 53°32' E 009°57'0 0.4
2017-Nov-14 19:29N 53°32' E 009°57'0 0.0
2017-Nov-14 18:59N 53°32' E 009°57'0 0.0
2017-Nov-14 18:29N 53°32' E 009°57'0 0.0
2017-Nov-14 17:59N 53°32' E 009°57'0 0.0
2017-Nov-14 17:29N 53°32' E 009°57'0 0.0
2017-Nov-14 16:59N 53°32' E 009°57'0 0.0
2017-Nov-14 16:29N 53°32' E 009°57'0 0.0
2017-Nov-14 15:59N 53°32' E 009°57'0 0.0
2017-Nov-14 15:29N 53°32' E 009°57'0 0.0
2017-Nov-14 14:59N 53°32' E 009°57'0 0.0
2017-Nov-14 14:29N 53°32' E 009°57'0 0.0
2017-Nov-14 14:00N 53°32' E 009°57'0 0.0
2017-Nov-14 13:30N 53°32' E 009°57'0 0.0
2017-Nov-14 13:00N 53°32' E 009°57'0 0.0
2017-Nov-14 12:30N 53°32' E 009°57'0 0.0
2017-Nov-14 12:00N 53°32' E 009°57'0 0.0
2017-Nov-14 11:29N 53°32' E 009°57'0 0.0
2017-Nov-14 11:00N 53°32' E 009°57'0 0.0
2017-Nov-14 10:30N 53°32' E 009°57'0 0.0
2017-Nov-14 10:00N 53°32' E 009°57'0 0.0
2017-Nov-14 09:30N 53°32' E 009°57'0 0.0
2017-Nov-14 09:00N 53°32' E 009°57'0 0.0
2017-Nov-14 08:30N 53°32' E 009°57'0 0.0
2017-Nov-14 08:00N 53°32' E 009°57'0 0.0
2017-Nov-14 07:30N 53°32' E 009°57'0 0.0
2017-Nov-14 07:00N 53°32' E 009°57'0 0.0
2017-Nov-14 06:26N 53°32' E 009°57'0 0.0
2017-Nov-14 06:00N 53°32' E 009°57'0 0.0
2017-Nov-14 05:30N 53°32' E 009°57'0 0.0
2017-Nov-14 05:00N 53°32' E 009°57'0 0.0
2017-Nov-14 04:30N 53°32' E 009°57'0 0.0
2017-Nov-14 04:00N 53°32' E 009°57'0 0.0
2017-Nov-14 03:30N 53°32' E 009°57'0 0.0
2017-Nov-14 03:00N 53°32' E 009°57'0 0.0
2017-Nov-14 02:30N 53°32' E 009°57'0 0.0
2017-Nov-14 02:00N 53°32' E 009°57'0 0.0
2017-Nov-14 01:30N 53°32' E 009°57'0 0.0
2017-Nov-14 01:00N 53°32' E 009°57'0 0.0
2017-Nov-14 00:30N 53°32' E 009°57'1 1.2
2017-Nov-14 00:01N 53°32' E 009°57'4 8.8
2017-Nov-13 23:30N 53°33' E 009°49'611.2
2017-Nov-13 23:00N 53°34' E 009°40'714.6
2017-Nov-13 22:31N 53°39' E 009°31'714.9
2017-Nov-13 22:00N 53°45' E 009°24'169 8.4
2017-Nov-13 01:58N 54°60' E 013°45'815.4
2017-Nov-13 01:26N 55°03' E 013°58'714.9
2017-Nov-13 00:57N 55°07' E 014°08'715.0
2017-Nov-13 00:29N 55°12' E 014°16'915.4
2017-Nov-12 23:53N 55°20' E 014°26'715.3
2017-Nov-12 23:26N 55°25' E 014°33'614.8
2017-Nov-12 23:00N 55°29' E 014°42'1015.3
2017-Nov-12 22:23N 55°33' E 014°57'615.4
2017-Nov-12 22:00N 55°36' E 015°06'815.5
2017-Nov-12 21:30N 55°40' E 015°18'815.4
2017-Nov-12 21:00N 55°44' E 015°30'815.4
2017-Nov-12 20:30N 55°48' E 015°41'815.3
2017-Nov-12 20:00N 55°51' E 015°53'815.6
2017-Nov-12 19:30N 55°55' E 016°05'815.8
2017-Nov-12 19:00N 55°59' E 016°18'816.2
2017-Nov-12 18:30N 56°04' E 016°30'816.3
2017-Nov-12 18:00N 56°08' E 016°43'816.2
2017-Nov-12 17:30N 56°13' E 016°54'27915.4
2017-Nov-11 23:26N 59°34' E 022°56'716.3
2017-Nov-11 23:00N 59°36' E 023°09'816.1
2017-Nov-11 22:30N 59°38' E 023°25'816.2
2017-Nov-11 22:00N 59°40' E 023°40'816.1
2017-Nov-11 21:30N 59°43' E 023°55'816.1
2017-Nov-11 21:00N 59°45' E 024°11'816.0
2017-Nov-11 20:31N 59°47' E 024°26'815.6
2017-Nov-11 20:01N 59°49' E 024°41'815.7
2017-Nov-11 19:31N 59°50' E 024°56'816.1
2017-Nov-11 19:00N 59°52' E 025°12'815.9
2017-Nov-11 18:30N 59°54' E 025°28'2115.8
2017-Nov-11 17:11N 59°58' E 026°08'315.8
2017-Nov-11 17:01N 59°59' E 026°14'815.6
2017-Nov-11 16:31N 60°01' E 026°29'815.6
2017-Nov-11 16:01N 60°01' E 026°45'816.4
2017-Nov-11 15:31N 59°59' E 027°01'815.1
2017-Nov-11 15:00N 60°03' E 027°14'815.3
2017-Nov-11 14:30N 60°07' E 027°27'815.7
2017-Nov-11 14:01N 60°11' E 027°41'815.3
2017-Nov-11 13:31N 60°11' E 027°56'816.5
2017-Nov-11 13:01N 60°09' E 028°12'816.1
2017-Nov-11 12:31N 60°04' E 028°26'816.0
2017-Nov-11 12:01N 60°03' E 028°42'816.4
2017-Nov-11 11:31N 60°03' E 028°58'2013.6
2017-Nov-11 10:01N 60°00' E 029°38'113.8
2017-Nov-11 09:58N 59°60' E 029°40'510.6
2017-Nov-11 09:30N 59°58' E 029°48'611.5
2017-Nov-11 09:00N 59°55' E 029°59'510.3
2017-Nov-11 08:30N 59°54' E 030°09'2 3.6
2017-Nov-11 08:00N 59°53' E 030°12'0 0.0
2017-Nov-11 07:29N 59°53' E 030°12'0 0.0
2017-Nov-11 07:00N 59°53' E 030°12'0 0.0
2017-Nov-11 06:29N 59°53' E 030°12'0 0.0
2017-Nov-11 05:59N 59°53' E 030°12'0 0.0
2017-Nov-11 05:29N 59°53' E 030°12'0 0.0
2017-Nov-11 04:59N 59°53' E 030°12'0 0.0
2017-Nov-11 04:29N 59°53' E 030°12'0 0.0
2017-Nov-11 03:59N 59°53' E 030°12'0 0.0
2017-Nov-11 03:29N 59°53' E 030°12'0 0.0
2017-Nov-11 02:56N 59°53' E 030°12'0 0.0
2017-Nov-11 02:29N 59°53' E 030°12'0 0.0
2017-Nov-11 01:59N 59°53' E 030°12'0 0.0
2017-Nov-11 01:29N 59°53' E 030°12'1 2.9
2017-Nov-11 01:00N 59°53' E 030°09'4 8.5
2017-Nov-11 00:30N 59°55' E 030°02'510.8
2017-Nov-11 00:00N 59°57' E 029°52'4 8.2
2017-Nov-10 23:30N 59°59' E 029°44'3 6.0
2017-Nov-10 23:01N 59°56' E 029°42'0 0.0
2017-Nov-10 22:30N 59°56' E 029°42'0 0.0
2017-Nov-10 22:00N 59°56' E 029°42'0 0.0
2017-Nov-10 21:30N 59°56' E 029°42'0 0.0
2017-Nov-10 21:00N 59°56' E 029°42'0 0.0
2017-Nov-10 20:30N 59°56' E 029°42'0 0.0
2017-Nov-10 20:00N 59°56' E 029°42'0 0.0
2017-Nov-10 19:30N 59°56' E 029°42'0 0.0
2017-Nov-10 18:57N 59°56' E 029°42'0 0.0
2017-Nov-10 18:30N 59°56' E 029°42'0 0.0
2017-Nov-10 18:00N 59°56' E 029°42'0 0.0
2017-Nov-10 17:30N 59°56' E 029°42'0 0.0
2017-Nov-10 17:00N 59°56' E 029°42'0 0.0
2017-Nov-10 16:27N 59°56' E 029°42'0 0.0
2017-Nov-10 16:00N 59°56' E 029°42'0 0.0
2017-Nov-10 15:30N 59°56' E 029°42'0 0.0
2017-Nov-10 15:00N 59°56' E 029°42'0 0.0
2017-Nov-10 14:30N 59°56' E 029°42'0 0.0
2017-Nov-10 14:00N 59°56' E 029°42'0 0.0
2017-Nov-10 13:30N 59°56' E 029°42'0 0.0
2017-Nov-10 13:00N 59°56' E 029°42'0 0.0
2017-Nov-10 12:30N 59°56' E 029°42'0 0.0
2017-Nov-10 12:00N 59°56' E 029°42'0 0.0
2017-Nov-10 11:30N 59°56' E 029°42'0 0.0
2017-Nov-10 11:00N 59°56' E 029°42'0 0.0
2017-Nov-10 10:24N 59°56' E 029°42'0 0.0
2017-Nov-10 10:00N 59°56' E 029°42'0 0.0
2017-Nov-10 09:30N 59°56' E 029°42'0 0.0
2017-Nov-10 08:51N 59°56' E 029°42'0 0.0
2017-Nov-10 08:27N 59°56' E 029°42'0 0.0
2017-Nov-10 07:54N 59°56' E 029°42'0 0.0
2017-Nov-10 07:30N 59°56' E 029°42'0 0.0
2017-Nov-10 06:54N 59°56' E 029°42'0 0.0
2017-Nov-10 06:27N 59°56' E 029°42'0 0.0
2017-Nov-10 06:00N 59°56' E 029°42'0 0.0
2017-Nov-10 05:30N 59°56' E 029°42'1 2.8
2017-Nov-10 05:00N 59°57' E 029°44'4 7.4
2017-Nov-10 04:30N 59°60' E 029°39'1112.5
2017-Nov-10 03:37N 60°01' E 029°17'215.4
2017-Nov-10 03:29N 60°02' E 029°13'815.6
2017-Nov-10 03:00N 60°02' E 028°58'815.2
2017-Nov-10 02:30N 60°02' E 028°43'714.9
2017-Nov-10 02:00N 60°03' E 028°28'713.5
2017-Nov-10 01:31N 60°07' E 028°17'713.7
2017-Nov-10 01:01N 60°09' E 028°04'714.0
2017-Nov-10 00:30N 60°10' E 027°50'  
Track history (hours):
 
Tides and Currents Weather Stations Pressure Air Temp Water Temp Dewpoint Dewpoint Depression Visibility Wind Speed Wind Dir Waves Ship Positions

Andrea

Last reported at 2017-Nov-20 00:28 UTC. Time now 2017-Nov-23 03:54 UTC.
Position N 49°21' E 000°59'.

Length 134 m; draft 7.2 m.

Type: Ship (hazmat cat A). MMSI: 236481000.

Date/timePositionNaut miles runAvg speedWind from/ knotsBaromVisibWave heightAir tempDewpointWater temp
2017-Nov-20 00:28N 49°21' E 000°59'0 0.0
2017-Nov-19 23:58N 49°21' E 000°59'0 0.0
2017-Nov-19 23:28N 49°21' E 000°59'0 0.0
2017-Nov-19 22:58N 49°21' E 000°59'0 0.0
2017-Nov-19 22:28N 49°21' E 000°59'0 0.0
2017-Nov-19 21:58N 49°21' E 000°59'0 0.0
2017-Nov-19 21:28N 49°21' E 000°59'0 0.0
2017-Nov-19 20:58N 49°21' E 000°59'0 0.0
2017-Nov-19 20:28N 49°21' E 000°59'0 0.0
2017-Nov-19 19:58N 49°21' E 000°59'0 0.0
2017-Nov-19 19:28N 49°21' E 000°59'0 0.0
2017-Nov-19 18:58N 49°21' E 000°59'0 0.0
2017-Nov-19 18:28N 49°21' E 000°59'0 0.0
2017-Nov-19 17:58N 49°21' E 000°59'0 0.0
2017-Nov-19 17:28N 49°21' E 000°59'0 0.0
2017-Nov-19 16:58N 49°21' E 000°59'0 0.0
2017-Nov-19 16:22N 49°21' E 000°59'0 0.0
2017-Nov-19 15:58N 49°21' E 000°59'0 0.0
2017-Nov-19 15:28N 49°21' E 000°59'0 0.0
2017-Nov-19 14:58N 49°21' E 000°59'0 0.0
2017-Nov-19 14:28N 49°21' E 000°59'0 0.0
2017-Nov-19 13:46N 49°21' E 000°59'0 0.0
2017-Nov-19 13:25N 49°21' E 000°59'0 0.0
2017-Nov-19 12:58N 49°21' E 000°59'0 0.0
2017-Nov-19 12:28N 49°21' E 000°59'0 0.0
2017-Nov-19 11:58N 49°21' E 000°59'0 0.0
2017-Nov-19 11:28N 49°21' E 000°59'0 0.0
2017-Nov-19 10:58N 49°21' E 000°59'0 0.0
2017-Nov-19 10:28N 49°21' E 000°59'0 0.0
2017-Nov-19 09:58N 49°21' E 000°59'0 0.0
2017-Nov-19 09:28N 49°21' E 000°59'0 0.0
2017-Nov-19 08:58N 49°21' E 000°59'0 0.0
2017-Nov-19 08:28N 49°21' E 000°59'0 0.0
2017-Nov-19 07:58N 49°21' E 000°59'0 0.0
2017-Nov-19 07:28N 49°21' E 000°59'0 0.0
2017-Nov-19 06:58N 49°21' E 000°59'0 0.0
2017-Nov-19 06:28N 49°21' E 000°59'0 0.0
2017-Nov-19 05:58N 49°21' E 000°59'0 0.0
2017-Nov-19 05:28N 49°21' E 000°59'0 0.0
2017-Nov-19 04:58N 49°21' E 000°59'0 0.0
2017-Nov-19 04:29N 49°21' E 000°59'0 0.0
2017-Nov-19 03:59N 49°21' E 000°59'0 0.0
2017-Nov-19 03:29N 49°21' E 000°59'0 0.0
2017-Nov-19 02:59N 49°21' E 000°59'0 0.0
2017-Nov-19 02:29N 49°21' E 000°59'0 0.0
2017-Nov-19 01:59N 49°21' E 000°59'0 0.0
2017-Nov-19 01:29N 49°21' E 000°59'0 0.0
2017-Nov-19 00:59N 49°21' E 000°59'0 0.0
2017-Nov-19 00:29N 49°21' E 000°59'0 0.0
2017-Nov-19 00:00N 49°21' E 000°59'2 4.4
2017-Nov-18 23:30N 49°22' E 000°55'612.7
2017-Nov-18 23:00N 49°28' E 000°56'3 7.0
2017-Nov-18 22:30N 49°26' E 000°52'2 4.7
2017-Nov-18 22:00N 49°26' E 000°48'510.0
2017-Nov-18 21:30N 49°31' E 000°46'4 7.7
2017-Nov-18 21:00N 49°30' E 000°40'510.7
2017-Nov-18 20:31N 49°26' E 000°35'4 8.6
2017-Nov-18 20:00N 49°29' E 000°30'611.6
2017-Nov-18 19:31N 49°27' E 000°22'713.3
2017-Nov-18 19:01N 49°26' E 000°12'714.6
2017-Nov-18 18:31N 49°27' E 000°01'5 9.5
2017-Nov-18 18:01N 49°29' W 000°06'1 2.5
2017-Nov-18 17:30N 49°29' W 000°08'0 0.0
2017-Nov-18 16:59N 49°29' W 000°08'0 0.2
2017-Nov-18 16:29N 49°29' W 000°08'0 0.1
2017-Nov-18 16:00N 49°29' W 000°08'0 0.0
2017-Nov-18 15:30N 49°29' W 000°08'0 0.0
2017-Nov-18 15:00N 49°29' W 000°08'0 0.0
2017-Nov-18 14:29N 49°29' W 000°08'0 0.1
2017-Nov-18 14:00N 49°29' W 000°08'2 4.8
2017-Nov-18 13:30N 49°30' W 000°11'815.7
2017-Nov-18 13:00N 49°38' W 000°11'815.8
2017-Nov-18 12:30N 49°46' W 000°11'713.8
2017-Nov-18 12:01N 49°53' W 000°11'612.6
2017-Nov-18 11:30N 49°59' W 000°10'612.6
2017-Nov-18 11:00N 50°05' W 000°10'612.4
2017-Nov-18 10:30N 50°12' W 000°09'612.3
2017-Nov-18 10:00N 50°18' W 000°09'612.2
2017-Nov-18 09:30N 50°24' W 000°08'5 9.4
2017-Nov-18 08:59N 50°28' W 000°05'510.4
2017-Nov-18 08:30N 50°30' E 000°03'510.5
2017-Nov-18 08:00N 50°31' E 000°11'510.6
2017-Nov-18 07:31N 50°33' E 000°19'611.2
2017-Nov-18 07:00N 50°35' E 000°27'612.1
2017-Nov-18 06:31N 50°37' E 000°36'612.8
2017-Nov-18 06:01N 50°41' E 000°44'713.7
2017-Nov-18 05:31N 50°45' E 000°52'713.9
2017-Nov-18 05:01N 50°50' E 000°60'714.0
2017-Nov-18 04:30N 50°55' E 001°09'713.7
2017-Nov-18 04:00N 50°59' E 001°17'713.3
2017-Nov-18 03:31N 51°03' E 001°25'612.5
2017-Nov-18 03:01N 51°07' E 001°33'611.4
2017-Nov-18 02:30N 51°11' E 001°40'611.2
2017-Nov-18 02:00N 51°14' E 001°47'510.8
2017-Nov-18 01:31N 51°18' E 001°52'510.7
2017-Nov-18 01:00N 51°23' E 001°56'510.8
2017-Nov-18 00:31N 51°28' E 002°01'611.3
2017-Nov-18 00:00N 51°32' E 002°07'611.5
2017-Nov-17 23:30N 51°36' E 002°13'5512.4
2017-Nov-17 19:04N 52°03' E 003°31'114.1
2017-Nov-17 18:59N 52°03' E 003°33'714.6
2017-Nov-17 18:30N 52°03' E 003°44'713.3
2017-Nov-17 18:01N 52°02' E 003°55'510.3
2017-Nov-17 17:30N 51°60' E 004°02'714.3
2017-Nov-17 17:01N 51°56' E 004°13'611.7
2017-Nov-17 16:30N 51°54' E 004°21'3 6.0
2017-Nov-17 16:00N 51°54' E 004°26'0 0.0
2017-Nov-17 15:28N 51°54' E 004°26'0 0.0
2017-Nov-17 14:58N 51°54' E 004°26'0 0.0
2017-Nov-17 14:28N 51°54' E 004°26'0 0.0
2017-Nov-17 13:58N 51°54' E 004°26'0 0.0
2017-Nov-17 13:28N 51°54' E 004°26'0 0.0
2017-Nov-17 12:58N 51°54' E 004°26'0 0.0
2017-Nov-17 12:28N 51°54' E 004°26'0 0.0
2017-Nov-17 11:58N 51°54' E 004°26'0 0.0
2017-Nov-17 11:28N 51°54' E 004°26'0 0.0
2017-Nov-17 10:58N 51°54' E 004°26'0 0.0
2017-Nov-17 10:28N 51°54' E 004°26'0 0.0
2017-Nov-17 09:58N 51°54' E 004°26'0 0.0
2017-Nov-17 09:28N 51°54' E 004°26'0 0.0
2017-Nov-17 08:58N 51°54' E 004°26'0 0.0
2017-Nov-17 08:28N 51°54' E 004°26'0 0.0
2017-Nov-17 07:58N 51°54' E 004°26'0 0.0
2017-Nov-17 07:28N 51°54' E 004°26'0 0.0
2017-Nov-17 06:58N 51°54' E 004°26'0 0.0
2017-Nov-17 06:28N 51°54' E 004°26'0 0.0
2017-Nov-17 05:58N 51°54' E 004°26'0 0.0
2017-Nov-17 05:28N 51°54' E 004°26'0 0.0
2017-Nov-17 04:58N 51°54' E 004°26'0 0.0
2017-Nov-17 04:28N 51°54' E 004°26'0 0.0
2017-Nov-17 03:58N 51°54' E 004°26'0 0.0
2017-Nov-17 03:28N 51°54' E 004°26'0 0.0
2017-Nov-17 02:58N 51°54' E 004°26'0 0.0
2017-Nov-17 02:28N 51°54' E 004°26'0 0.0
2017-Nov-17 01:58N 51°54' E 004°26'0 0.0
2017-Nov-17 01:28N 51°54' E 004°26'0 0.0
2017-Nov-17 00:58N 51°54' E 004°26'0 0.0
2017-Nov-17 00:28N 51°54' E 004°26'0 0.0
2017-Nov-16 23:58N 51°54' E 004°26'0 0.5
2017-Nov-16 23:30N 51°54' E 004°26'1 2.2
2017-Nov-16 22:59N 51°53' E 004°25'0 0.0
2017-Nov-16 22:29N 51°53' E 004°25'0 0.0
2017-Nov-16 21:59N 51°53' E 004°25'0 0.0
2017-Nov-16 21:29N 51°53' E 004°25'0 0.0
2017-Nov-16 20:59N 51°53' E 004°25'0 0.0
2017-Nov-16 20:29N 51°53' E 004°25'0 0.0
2017-Nov-16 19:59N 51°53' E 004°25'0 0.0
2017-Nov-16 19:29N 51°53' E 004°25'0 0.0
2017-Nov-16 18:59N 51°53' E 004°25'0 0.0
2017-Nov-16 18:29N 51°53' E 004°25'0 0.0
2017-Nov-16 17:59N 51°53' E 004°25'0 0.0
2017-Nov-16 17:29N 51°53' E 004°25'0 0.0
2017-Nov-16 16:59N 51°53' E 004°25'0 0.0
2017-Nov-16 16:29N 51°53' E 004°25'0 0.0
2017-Nov-16 15:59N 51°53' E 004°25'0 0.0
2017-Nov-16 15:29N 51°53' E 004°25'0 0.0
2017-Nov-16 14:59N 51°53' E 004°25'0 0.0
2017-Nov-16 14:29N 51°53' E 004°25'0 0.0
2017-Nov-16 14:00N 51°53' E 004°25'2 4.0
2017-Nov-16 13:30N 51°54' E 004°23'4 8.3
2017-Nov-16 13:00N 51°54' E 004°16'510.0
2017-Nov-16 12:30N 51°57' E 004°10'612.2
2017-Nov-16 12:00N 51°60' E 004°00'612.8
2017-Nov-16 11:30N 52°01' E 003°50'4 7.3
2017-Nov-16 11:00N 52°04' E 003°46'4 7.8
2017-Nov-16 10:30N 52°08' E 003°46'4 8.3
2017-Nov-16 10:00N 52°12' E 003°46'611.8
2017-Nov-16 09:30N 52°18' E 003°47'813.2
2017-Nov-16 08:53N 52°26' E 003°50'513.0
2017-Nov-16 08:29N 52°31' E 003°51'612.9
2017-Nov-16 08:00N 52°37' E 003°52'713.4
2017-Nov-16 07:30N 52°44' E 003°55'1413.6
2017-Nov-16 06:28N 52°57' E 004°01'1013.5
2017-Nov-16 05:45N 53°04' E 004°13'413.4
2017-Nov-16 05:29N 53°06' E 004°18'13213.2
2017-Nov-15 19:27N 54°02' E 007°40'913.5
2017-Nov-15 18:50N 54°02' E 007°54'413.4
2017-Nov-15 18:30N 54°01' E 008°01'713.3
2017-Nov-15 18:00N 54°01' E 008°12'713.8
2017-Nov-15 17:30N 53°59' E 008°24'816.4
2017-Nov-15 17:00N 53°57' E 008°38'918.0
2017-Nov-15 16:30N 53°51' E 008°47'918.8
2017-Nov-15 16:00N 53°52' E 009°03'714.3
2017-Nov-15 15:30N 53°53' E 009°15'917.7
2017-Nov-15 15:00N 53°45' E 009°24'816.3
2017-Nov-15 14:30N 53°39' E 009°31'816.0
2017-Nov-15 14:00N 53°34' E 009°43'612.5
2017-Nov-15 13:30N 53°33' E 009°53'1 2.6
2017-Nov-15 12:59N 53°32' E 009°55'0 0.0
2017-Nov-15 12:29N 53°32' E 009°55'0 0.0
2017-Nov-15 11:59N 53°32' E 009°55'0 0.0
2017-Nov-15 11:29N 53°32' E 009°55'0 0.0
2017-Nov-15 10:59N 53°32' E 009°55'0 0.0
2017-Nov-15 10:29N 53°32' E 009°55'0 0.0
2017-Nov-15 09:59N 53°32' E 009°55'0 0.0
2017-Nov-15 09:29N 53°32' E 009°55'0 0.0
2017-Nov-15 08:59N 53°32' E 009°55'0 0.0
2017-Nov-15 08:29N 53°32' E 009°55'0 0.0
2017-Nov-15 07:59N 53°32' E 009°55'0 0.0
2017-Nov-15 07:29N 53°32' E 009°55'0 0.0
2017-Nov-15 06:59N 53°32' E 009°55'0 0.0
2017-Nov-15 06:29N 53°32' E 009°55'0 0.0
2017-Nov-15 05:59N 53°32' E 009°55'0 0.0
2017-Nov-15 05:29N 53°32' E 009°55'0 0.0
2017-Nov-15 04:59N 53°32' E 009°55'0 0.0
2017-Nov-15 04:29N 53°32' E 009°55'0 0.0
2017-Nov-15 03:59N 53°32' E 009°55'0 0.0
2017-Nov-15 03:29N 53°32' E 009°55'0 0.0
2017-Nov-15 02:59N 53°32' E 009°55'0 0.0
2017-Nov-15 02:29N 53°32' E 009°55'0 0.0
2017-Nov-15 01:59N 53°32' E 009°55'0 0.0
2017-Nov-15 01:29N 53°32' E 009°55'0 0.0
2017-Nov-15 00:59N 53°32' E 009°55'0 0.0
2017-Nov-15 00:29N 53°32' E 009°55'0 0.0
2017-Nov-14 23:59N 53°32' E 009°55'0 0.0
2017-Nov-14 23:29N 53°32' E 009°55'0 0.0
2017-Nov-14 22:59N 53°32' E 009°55'0 0.0
2017-Nov-14 22:29N 53°32' E 009°55'0 0.0
2017-Nov-14 21:59N 53°32' E 009°55'0 0.0
2017-Nov-14 21:29N 53°32' E 009°55'0 0.0
2017-Nov-14 20:59N 53°32' E 009°55'0 0.0
2017-Nov-14 20:29N 53°32' E 009°55'1 2.7
2017-Nov-14 20:00N 53°32' E 009°57'0 0.4
2017-Nov-14 19:29N 53°32' E 009°57'0 0.0
2017-Nov-14 18:59N 53°32' E 009°57'0 0.0
2017-Nov-14 18:29N 53°32' E 009°57'0 0.0
2017-Nov-14 17:59N 53°32' E 009°57'0 0.0
2017-Nov-14 17:29N 53°32' E 009°57'0 0.0
2017-Nov-14 16:59N 53°32' E 009°57'0 0.0
2017-Nov-14 16:29N 53°32' E 009°57'0 0.0
2017-Nov-14 15:59N 53°32' E 009°57'0 0.0
2017-Nov-14 15:29N 53°32' E 009°57'0 0.0
2017-Nov-14 14:59N 53°32' E 009°57'0 0.0
2017-Nov-14 14:29N 53°32' E 009°57'0 0.0
2017-Nov-14 14:00N 53°32' E 009°57'0 0.0
2017-Nov-14 13:30N 53°32' E 009°57'0 0.0
2017-Nov-14 13:00N 53°32' E 009°57'0 0.0
2017-Nov-14 12:30N 53°32' E 009°57'0 0.0
2017-Nov-14 12:00N 53°32' E 009°57'0 0.0
2017-Nov-14 11:29N 53°32' E 009°57'0 0.0
2017-Nov-14 11:00N 53°32' E 009°57'0 0.0
2017-Nov-14 10:30N 53°32' E 009°57'0 0.0
2017-Nov-14 10:00N 53°32' E 009°57'0 0.0
2017-Nov-14 09:30N 53°32' E 009°57'0 0.0
2017-Nov-14 09:00N 53°32' E 009°57'0 0.0
2017-Nov-14 08:30N 53°32' E 009°57'0 0.0
2017-Nov-14 08:00N 53°32' E 009°57'0 0.0
2017-Nov-14 07:30N 53°32' E 009°57'0 0.0
2017-Nov-14 07:00N 53°32' E 009°57'0 0.0
2017-Nov-14 06:26N 53°32' E 009°57'0 0.0
2017-Nov-14 06:00N 53°32' E 009°57'0 0.0
2017-Nov-14 05:30N 53°32' E 009°57'0 0.0
2017-Nov-14 05:00N 53°32' E 009°57'0 0.0
2017-Nov-14 04:30N 53°32' E 009°57'0 0.0
2017-Nov-14 04:00N 53°32' E 009°57'0 0.0
2017-Nov-14 03:30N 53°32' E 009°57'0 0.0
2017-Nov-14 03:00N 53°32' E 009°57'0 0.0
2017-Nov-14 02:30N 53°32' E 009°57'0 0.0
2017-Nov-14 02:00N 53°32' E 009°57'0 0.0
2017-Nov-14 01:30N 53°32' E 009°57'0 0.0
2017-Nov-14 01:00N 53°32' E 009°57'0 0.0
2017-Nov-14 00:30N 53°32' E 009°57'1 1.2
2017-Nov-14 00:01N 53°32' E 009°57'4 8.8
2017-Nov-13 23:30N 53°33' E 009°49'611.2
2017-Nov-13 23:00N 53°34' E 009°40'714.6
2017-Nov-13 22:31N 53°39' E 009°31'714.9
2017-Nov-13 22:00N 53°45' E 009°24'169 8.4
2017-Nov-13 01:58N 54°60' E 013°45'815.4
2017-Nov-13 01:26N 55°03' E 013°58'714.9
2017-Nov-13 00:57N 55°07' E 014°08'715.0
2017-Nov-13 00:29N 55°12' E 014°16'915.4
2017-Nov-12 23:53N 55°20' E 014°26'715.3
2017-Nov-12 23:26N 55°25' E 014°33'614.8
2017-Nov-12 23:00N 55°29' E 014°42'1015.3
2017-Nov-12 22:23N 55°33' E 014°57'615.4
2017-Nov-12 22:00N 55°36' E 015°06'815.5
2017-Nov-12 21:30N 55°40' E 015°18'815.4
2017-Nov-12 21:00N 55°44' E 015°30'815.4
2017-Nov-12 20:30N 55°48' E 015°41'815.3
2017-Nov-12 20:00N 55°51' E 015°53'815.6
2017-Nov-12 19:30N 55°55' E 016°05'815.8
2017-Nov-12 19:00N 55°59' E 016°18'816.2
2017-Nov-12 18:30N 56°04' E 016°30'816.3
2017-Nov-12 18:00N 56°08' E 016°43'816.2
2017-Nov-12 17:30N 56°13' E 016°54'27915.4
2017-Nov-11 23:26N 59°34' E 022°56'716.3
2017-Nov-11 23:00N 59°36' E 023°09'816.1
2017-Nov-11 22:30N 59°38' E 023°25'816.2
2017-Nov-11 22:00N 59°40' E 023°40'816.1
2017-Nov-11 21:30N 59°43' E 023°55'816.1
2017-Nov-11 21:00N 59°45' E 024°11'816.0
2017-Nov-11 20:31N 59°47' E 024°26'815.6
2017-Nov-11 20:01N 59°49' E 024°41'815.7
2017-Nov-11 19:31N 59°50' E 024°56'816.1
2017-Nov-11 19:00N 59°52' E 025°12'815.9
2017-Nov-11 18:30N 59°54' E 025°28'2115.8
2017-Nov-11 17:11N 59°58' E 026°08'315.8
2017-Nov-11 17:01N 59°59' E 026°14'815.6
2017-Nov-11 16:31N 60°01' E 026°29'815.6
2017-Nov-11 16:01N 60°01' E 026°45'816.4
2017-Nov-11 15:31N 59°59' E 027°01'815.1
2017-Nov-11 15:00N 60°03' E 027°14'815.3
2017-Nov-11 14:30N 60°07' E 027°27'815.7
2017-Nov-11 14:01N 60°11' E 027°41'815.3
2017-Nov-11 13:31N 60°11' E 027°56'816.5
2017-Nov-11 13:01N 60°09' E 028°12'816.1
2017-Nov-11 12:31N 60°04' E 028°26'816.0
2017-Nov-11 12:01N 60°03' E 028°42'816.4
2017-Nov-11 11:31N 60°03' E 028°58'2013.6
2017-Nov-11 10:01N 60°00' E 029°38'113.8
2017-Nov-11 09:58N 59°60' E 029°40'510.6
2017-Nov-11 09:30N 59°58' E 029°48'611.5
2017-Nov-11 09:00N 59°55' E 029°59'510.3
2017-Nov-11 08:30N 59°54' E 030°09'2 3.6
2017-Nov-11 08:00N 59°53' E 030°12'0 0.0
2017-Nov-11 07:29N 59°53' E 030°12'0 0.0
2017-Nov-11 07:00N 59°53' E 030°12'0 0.0
2017-Nov-11 06:29N 59°53' E 030°12'0 0.0
2017-Nov-11 05:59N 59°53' E 030°12'0 0.0
2017-Nov-11 05:29N 59°53' E 030°12'0 0.0
2017-Nov-11 04:59N 59°53' E 030°12'0 0.0
2017-Nov-11 04:29N 59°53' E 030°12'0 0.0
2017-Nov-11 03:59N 59°53' E 030°12'0 0.0
2017-Nov-11 03:29N 59°53' E 030°12'0 0.0
2017-Nov-11 02:56N 59°53' E 030°12'0 0.0
2017-Nov-11 02:29N 59°53' E 030°12'0 0.0
2017-Nov-11 01:59N 59°53' E 030°12'0 0.0
2017-Nov-11 01:29N 59°53' E 030°12'1 2.9
2017-Nov-11 01:00N 59°53' E 030°09'4 8.5
2017-Nov-11 00:30N 59°55' E 030°02'510.8
2017-Nov-11 00:00N 59°57' E 029°52'4 8.2
2017-Nov-10 23:30N 59°59' E 029°44'3 6.0
2017-Nov-10 23:01N 59°56' E 029°42'0 0.0
2017-Nov-10 22:30N 59°56' E 029°42'0 0.0
2017-Nov-10 22:00N 59°56' E 029°42'0 0.0
2017-Nov-10 21:30N 59°56' E 029°42'0 0.0
2017-Nov-10 21:00N 59°56' E 029°42'0 0.0
2017-Nov-10 20:30N 59°56' E 029°42'0 0.0
2017-Nov-10 20:00N 59°56' E 029°42'0 0.0
2017-Nov-10 19:30N 59°56' E 029°42'0 0.0
2017-Nov-10 18:57N 59°56' E 029°42'0 0.0
2017-Nov-10 18:30N 59°56' E 029°42'0 0.0
2017-Nov-10 18:00N 59°56' E 029°42'0 0.0
2017-Nov-10 17:30N 59°56' E 029°42'0 0.0
2017-Nov-10 17:00N 59°56' E 029°42'0 0.0
2017-Nov-10 16:27N 59°56' E 029°42'0 0.0
2017-Nov-10 16:00N 59°56' E 029°42'0 0.0
2017-Nov-10 15:30N 59°56' E 029°42'0 0.0
2017-Nov-10 15:00N 59°56' E 029°42'0 0.0
2017-Nov-10 14:30N 59°56' E 029°42'0 0.0
2017-Nov-10 14:00N 59°56' E 029°42'0 0.0
2017-Nov-10 13:30N 59°56' E 029°42'0 0.0
2017-Nov-10 13:00N 59°56' E 029°42'0 0.0
2017-Nov-10 12:30N 59°56' E 029°42'0 0.0
2017-Nov-10 12:00N 59°56' E 029°42'0 0.0
2017-Nov-10 11:30N 59°56' E 029°42'0 0.0
2017-Nov-10 11:00N 59°56' E 029°42'0 0.0
2017-Nov-10 10:24N 59°56' E 029°42'0 0.0
2017-Nov-10 10:00N 59°56' E 029°42'0 0.0
2017-Nov-10 09:30N 59°56' E 029°42'0 0.0
2017-Nov-10 08:51N 59°56' E 029°42'0 0.0
2017-Nov-10 08:27N 59°56' E 029°42'0 0.0
2017-Nov-10 07:54N 59°56' E 029°42'0 0.0
2017-Nov-10 07:30N 59°56' E 029°42'0 0.0
2017-Nov-10 06:54N 59°56' E 029°42'0 0.0
2017-Nov-10 06:27N 59°56' E 029°42'0 0.0
2017-Nov-10 06:00N 59°56' E 029°42'0 0.0
2017-Nov-10 05:30N 59°56' E 029°42'1 2.8
2017-Nov-10 05:00N 59°57' E 029°44'4 7.4
2017-Nov-10 04:30N 59°60' E 029°39'1112.5
2017-Nov-10 03:37N 60°01' E 029°17'215.4
2017-Nov-10 03:29N 60°02' E 029°13'815.6
2017-Nov-10 03:00N 60°02' E 028°58'815.2
2017-Nov-10 02:30N 60°02' E 028°43'714.9
2017-Nov-10 02:00N 60°03' E 028°28'713.5
2017-Nov-10 01:31N 60°07' E 028°17'713.7
2017-Nov-10 01:01N 60°09' E 028°04'714.0
2017-Nov-10 00:30N 60°10' E 027°50'  

Dump ship's entire track history